Time;durP1;ratioP1;P1;durP2;ratioP2;P2;SDS_P1;SDS_P2;PMS_P1;PMS_P2;Temp;Humidity;BMP_temperature;BMP_pressure;BME280_temperature;BME280_humidity;BME280_pressure;Samples;Min_cycle;Max_cycle;Signal;HPM_P1;HPM_P2
2023/02/23 00:01:17;;;;;;;58.27;40.07;;;8.80;99.90;;;;;;5044898;28;20221;-79
2023/02/23 00:03:48;;;;;;;60.27;38.50;;;8.80;99.90;;;;;;5046690;28;20309;-81
2023/02/23 00:06:16;;;;;;;58.97;38.63;;;8.80;99.90;;;;;;5045809;28;20252;-81
2023/02/23 00:08:43;;;;;;;67.03;38.93;;;8.70;99.90;;;;;;5045219;28;20665;-81
2023/02/23 00:11:11;;;;;;;58.63;37.60;;;8.70;99.90;;;;;;5045120;28;20209;-81
2023/02/23 00:13:39;;;;;;;53.57;34.13;;;8.80;99.90;;;;;;5045491;28;20307;-82
2023/02/23 00:16:08;;;;;;;58.57;37.20;;;8.80;99.90;;;;;;5043752;28;20252;-82
2023/02/23 00:18:43;;;;;;;55.83;36.13;;;8.80;99.90;;;;;;5045474;28;20202;-81
2023/02/23 00:21:14;;;;;;;57.40;37.90;;;8.80;99.90;;;;;;5044984;28;20212;-80
2023/02/23 00:23:44;;;;;;;55.07;35.10;;;8.80;99.90;;;;;;5045018;28;20367;-82
2023/02/23 00:26:12;;;;;;;55.13;35.37;;;8.70;99.90;;;;;;5044890;28;20197;-82
2023/02/23 00:28:42;;;;;;;56.80;36.57;;;8.70;99.90;;;;;;5046059;28;20214;-81
2023/02/23 00:31:09;;;;;;;55.63;34.80;;;8.70;99.90;;;;;;5045036;28;20895;-81
2023/02/23 00:33:36;;;;;;;56.60;35.43;;;8.70;99.90;;;;;;5045352;28;20592;-81
2023/02/23 00:36:05;;;;;;;54.80;34.73;;;8.60;99.90;;;;;;5044187;28;20205;-82
2023/02/23 00:38:35;;;;;;;50.10;32.10;;;8.60;99.90;;;;;;5044440;28;20271;-81
2023/02/23 00:41:07;;;;;;;53.63;33.93;;;8.60;99.90;;;;;;5044841;28;20206;-81
2023/02/23 00:43:36;;;;;;;53.87;34.57;;;8.60;99.90;;;;;;5044617;28;20222;-81
2023/02/23 00:46:07;;;;;;;54.67;34.43;;;8.50;99.90;;;;;;5044199;28;20319;-81
2023/02/23 00:48:35;;;;;;;53.17;33.80;;;8.60;99.90;;;;;;5044743;28;20202;-81
2023/02/23 00:51:04;;;;;;;50.97;32.27;;;8.60;99.90;;;;;;5044302;28;20202;-80
2023/02/23 00:53:33;;;;;;;49.70;31.67;;;8.60;99.90;;;;;;5054547;28;20201;-80
2023/02/23 00:56:00;;;;;;;47.70;30.10;;;8.50;99.90;;;;;;5064523;28;20659;-80
2023/02/23 00:58:27;;;;;;;49.33;30.90;;;8.50;99.90;;;;;;5064163;28;20934;-79
2023/02/23 01:00:54;;;;;;;41.83;27.20;;;8.40;99.90;;;;;;5065149;28;20201;-81
2023/02/23 01:03:21;;;;;;;41.53;27.37;;;8.40;99.90;;;;;;5052465;28;20229;-80
2023/02/23 01:05:49;;;;;;;37.07;24.50;;;8.40;99.90;;;;;;5043924;28;20206;-80
2023/02/23 01:08:17;;;;;;;40.03;26.67;;;8.40;99.90;;;;;;5045226;28;20200;-79
2023/02/23 01:10:51;;;;;;;48.27;31.23;;;8.40;99.90;;;;;;5044481;28;20283;-80
2023/02/23 01:13:18;;;;;;;49.97;32.93;;;8.40;99.90;;;;;;5044452;28;20712;-82
2023/02/23 01:15:46;;;;;;;52.80;32.00;;;8.40;99.90;;;;;;5044145;28;20202;-80
2023/02/23 01:18:14;;;;;;;45.93;29.47;;;8.40;99.90;;;;;;5043590;28;20198;-79
2023/02/23 01:20:41;;;;;;;43.07;27.90;;;8.40;99.90;;;;;;5044847;28;20284;-81
2023/02/23 01:23:11;;;;;;;48.60;30.10;;;8.40;99.90;;;;;;5044333;28;20237;-80
2023/02/23 01:25:39;;;;;;;41.83;27.70;;;8.40;99.90;;;;;;5043627;28;20688;-80
2023/02/23 01:28:08;;;;;;;46.87;29.30;;;8.30;99.90;;;;;;5044406;28;20264;-80
2023/02/23 01:30:35;;;;;;;47.20;29.40;;;8.30;99.90;;;;;;5044772;28;20309;-81
2023/02/23 01:33:02;;;;;;;52.07;32.37;;;8.30;99.90;;;;;;5043242;28;20213;-82
2023/02/23 01:35:29;;;;;;;47.43;29.40;;;8.30;99.90;;;;;;5043615;28;20194;-82
2023/02/23 01:37:56;;;;;;;43.53;27.10;;;8.30;99.90;;;;;;5043454;28;20614;-81
2023/02/23 01:40:28;;;;;;;45.57;29.03;;;8.30;99.90;;;;;;5043030;28;20955;-81
2023/02/23 01:42:57;;;;;;;43.93;28.33;;;8.30;99.90;;;;;;5043018;28;20565;-82
2023/02/23 01:45:34;;;;;;;46.83;27.47;;;8.20;99.90;;;;;;5043944;28;20484;-83
2023/02/23 01:48:06;;;;;;;42.73;26.90;;;8.20;99.90;;;;;;5044318;28;20606;-81
2023/02/23 01:50:42;;;;;;;38.20;24.97;;;8.20;99.90;;;;;;5043827;28;20205;-81
2023/02/23 01:53:10;;;;;;;41.27;26.87;;;8.20;99.90;;;;;;5045520;28;20589;-81
2023/02/23 01:55:37;;;;;;;37.57;23.97;;;8.20;99.90;;;;;;5046153;28;20287;-83
2023/02/23 01:58:14;;;;;;;45.20;27.90;;;8.20;99.90;;;;;;5045598;28;20210;-83
2023/02/23 02:00:45;;;;;;;40.37;26.07;;;8.10;99.90;;;;;;5045322;28;20498;-83
2023/02/23 02:03:19;;;;;;;43.00;27.63;;;8.10;99.90;;;;;;5044668;28;20225;-82
2023/02/23 02:05:48;;;;;;;37.53;24.53;;;8.10;99.90;;;;;;5045325;28;20210;-82
2023/02/23 02:08:17;;;;;;;35.30;23.57;;;8.10;99.90;;;;;;5045222;28;20194;-81
2023/02/23 02:10:45;;;;;;;38.00;23.70;;;8.10;99.90;;;;;;5046326;28;20197;-83
2023/02/23 02:13:19;;;;;;;36.50;23.03;;;8.10;99.90;;;;;;5045611;28;20692;-84
2023/02/23 02:16:17;;;;;;;37.70;24.37;;;8.10;99.90;;;;;;5048705;28;20201;-83
2023/02/23 02:19:27;;;;;;;44.43;28.20;;;8.00;99.90;;;;;;5065751;28;20312;-81
2023/02/23 02:22:26;;;;;;;40.53;25.03;;;8.10;99.90;;;;;;5048793;28;20250;-82
2023/02/23 02:25:34;;;;;;;42.90;26.97;;;8.00;99.90;;;;;;5044952;28;20213;-82
2023/02/23 02:28:46;;;;;;;44.37;27.63;;;8.10;99.90;;;;;;4963849;28;20220;-82
2023/02/23 02:31:48;;;;;;;38.27;24.07;;;8.10;99.90;;;;;;5016476;28;20205;-83
2023/02/23 02:34:42;;;;;;;44.77;27.27;;;8.10;99.90;;;;;;5045409;28;20562;-82
2023/02/23 02:37:32;;;;;;;45.57;26.63;;;8.10;99.90;;;;;;5045405;28;20699;-84
2023/02/23 02:40:25;;;;;;;44.67;27.10;;;8.10;99.90;;;;;;5049375;28;20228;-82
2023/02/23 02:43:08;;;;;;;46.90;27.57;;;8.20;99.90;;;;;;5049260;28;20229;-83
2023/02/23 02:45:40;;;;;;;42.20;26.73;;;8.20;99.90;;;;;;5049084;28;21011;-84
2023/02/23 02:48:20;;;;;;;47.60;27.97;;;8.20;99.90;;;;;;5049177;28;20206;-83
2023/02/23 02:50:54;;;;;;;49.33;27.93;;;8.10;99.90;;;;;;5049923;28;20193;-83
2023/02/23 02:53:28;;;;;;;42.67;26.30;;;8.10;99.90;;;;;;5049425;28;20206;-83
2023/02/23 02:55:59;;;;;;;42.07;25.00;;;8.10;99.90;;;;;;5065128;28;20284;-83
2023/02/23 02:58:27;;;;;;;40.90;26.37;;;8.10;99.90;;;;;;5068968;28;20578;-82
2023/02/23 04:19:49;;;;;;;55.63;30.60;;;7.90;99.90;;;;;;5028218;28;20765;-83
2023/02/23 04:22:16;;;;;;;47.73;27.60;;;7.90;99.90;;;;;;5028415;28;20205;-83
2023/02/23 04:24:45;;;;;;;46.93;29.20;;;7.90;99.90;;;;;;5028619;28;20548;-83
2023/02/23 04:27:12;;;;;;;52.00;29.40;;;7.90;99.90;;;;;;5028440;28;20313;-82
2023/02/23 04:29:39;;;;;;;45.83;26.27;;;7.90;99.90;;;;;;5029026;28;20202;-83
2023/02/23 04:32:06;;;;;;;50.27;29.37;;;7.90;99.90;;;;;;5028489;28;20220;-84
2023/02/23 04:34:35;;;;;;;50.57;29.10;;;7.90;99.90;;;;;;5028769;28;20254;-83
2023/02/23 04:37:02;;;;;;;48.63;28.13;;;7.90;99.90;;;;;;5025856;28;20194;-83
2023/02/23 04:39:29;;;;;;;53.97;30.63;;;7.80;99.90;;;;;;5026814;28;20222;-83
2023/02/23 04:41:56;;;;;;;60.53;32.53;;;7.90;99.90;;;;;;5040929;28;20210;-82
2023/02/23 04:44:23;;;;;;;61.37;32.93;;;8.00;99.90;;;;;;5045519;28;20332;-83
2023/02/23 04:46:49;;;;;;;56.13;30.07;;;8.00;99.90;;;;;;5028249;28;20210;-82
2023/02/23 04:49:16;;;;;;;58.93;31.33;;;8.10;99.90;;;;;;5026369;28;20214;-82
2023/02/23 04:51:45;;;;;;;54.97;30.90;;;8.00;99.90;;;;;;5025475;28;20206;-82
2023/02/23 04:54:12;;;;;;;64.27;33.07;;;8.00;99.90;;;;;;5025285;28;20234;-82
2023/02/23 04:56:39;;;;;;;58.63;32.13;;;8.00;99.90;;;;;;5024624;28;20203;-82
2023/02/23 04:59:06;;;;;;;58.00;31.60;;;8.10;99.90;;;;;;5024959;28;20207;-83
2023/02/23 05:01:33;;;;;;;57.60;32.20;;;8.10;99.90;;;;;;5025500;28;20284;-83
2023/02/23 05:04:00;;;;;;;59.60;32.23;;;8.10;99.90;;;;;;5025037;28;20229;-83
2023/02/23 05:06:27;;;;;;;56.53;31.23;;;8.10;99.90;;;;;;5025927;28;20506;-79
2023/02/23 05:08:55;;;;;;;54.20;30.77;;;8.10;99.90;;;;;;5025927;28;20210;-80
2023/02/23 05:11:22;;;;;;;59.60;33.10;;;8.10;99.90;;;;;;5025762;28;20198;-81
2023/02/23 05:13:49;;;;;;;56.97;31.20;;;8.10;99.90;;;;;;5025668;28;20205;-81
2023/02/23 05:16:17;;;;;;;61.43;32.73;;;8.20;99.90;;;;;;5026776;28;20238;-80
2023/02/23 05:18:44;;;;;;;59.47;31.53;;;8.20;99.90;;;;;;5025323;28;20201;-80
2023/02/23 05:21:11;;;;;;;64.83;34.60;;;8.10;99.90;;;;;;5025374;28;20218;-81
2023/02/23 05:23:38;;;;;;;54.07;30.37;;;8.10;99.90;;;;;;5025094;28;20809;-81
2023/02/23 05:26:08;;;;;;;56.57;30.20;;;8.10;99.90;;;;;;5039140;28;20772;-81
2023/02/23 05:28:36;;;;;;;64.17;31.63;;;8.10;99.90;;;;;;5045616;28;20292;-81
2023/02/23 05:31:04;;;;;;;57.77;30.97;;;8.00;99.90;;;;;;5029655;28;20218;-81
2023/02/23 05:33:31;;;;;;;58.27;31.20;;;8.10;99.90;;;;;;5024161;28;20211;-81
2023/02/23 05:35:58;;;;;;;64.00;32.77;;;8.10;99.90;;;;;;5023853;28;20209;-81
2023/02/23 05:38:25;;;;;;;62.87;31.43;;;8.10;99.90;;;;;;5024536;28;20230;-80
2023/02/23 05:40:52;;;;;;;60.83;32.13;;;8.10;99.90;;;;;;5025657;28;20301;-82
2023/02/23 05:43:20;;;;;;;58.23;30.63;;;8.10;99.90;;;;;;5026141;28;20499;-83
2023/02/23 05:45:47;;;;;;;57.97;31.07;;;8.10;99.90;;;;;;5025968;28;20194;-81
2023/02/23 05:48:14;;;;;;;58.47;31.27;;;8.10;99.90;;;;;;5025421;28;20218;-81
2023/02/23 05:50:41;;;;;;;60.13;29.83;;;8.20;99.90;;;;;;5026875;28;20548;-81
2023/02/23 05:53:09;;;;;;;53.33;28.83;;;8.20;99.90;;;;;;5025604;28;20302;-81
2023/02/23 05:55:36;;;;;;;48.57;26.63;;;8.10;99.90;;;;;;5026580;28;20273;-81
2023/02/23 05:58:03;;;;;;;50.30;28.00;;;8.10;99.90;;;;;;5026724;28;20292;-82
2023/02/23 06:00:31;;;;;;;52.87;26.73;;;8.10;99.90;;;;;;5027321;28;20293;-82
2023/02/23 06:02:58;;;;;;;55.07;26.63;;;8.10;99.90;;;;;;5026714;28;20607;-82
2023/02/23 06:05:25;;;;;;;56.83;27.57;;;8.10;99.90;;;;;;5027137;28;20226;-81
2023/02/23 06:07:52;;;;;;;49.93;25.90;;;8.00;99.90;;;;;;5026564;28;20280;-81
2023/02/23 06:10:19;;;;;;;50.17;25.40;;;8.00;99.90;;;;;;5026533;28;20199;-83
2023/02/23 06:12:46;;;;;;;40.87;21.60;;;8.10;99.90;;;;;;5024439;28;20226;-80
2023/02/23 06:15:13;;;;;;;47.57;23.97;;;8.00;99.90;;;;;;5029482;28;20205;-81
2023/02/23 06:17:41;;;;;;;43.00;22.53;;;8.00;99.90;;;;;;5045170;28;20206;-81
2023/02/23 06:20:10;;;;;;;45.47;22.07;;;8.00;99.90;;;;;;5027660;28;20301;-82
2023/02/23 06:22:37;;;;;;;45.63;22.67;;;8.00;99.90;;;;;;5026106;28;20356;-82
2023/02/23 06:25:04;;;;;;;40.97;20.93;;;8.00;99.90;;;;;;5033888;28;20237;-81
2023/02/23 06:27:31;;;;;;;39.00;20.67;;;8.00;99.90;;;;;;5044320;28;20669;-81
2023/02/23 06:29:58;;;;;;;40.77;21.53;;;8.00;99.90;;;;;;5027229;28;20942;-82
2023/02/23 06:32:26;;;;;;;40.00;21.20;;;8.00;99.90;;;;;;5026566;28;20287;-82
2023/02/23 06:34:55;;;;;;;35.07;18.97;;;8.00;99.90;;;;;;5032595;28;20208;-81
2023/02/23 06:37:22;;;;;;;33.17;19.23;;;8.00;99.90;;;;;;5044556;28;20276;-83
2023/02/23 06:39:49;;;;;;;37.10;19.63;;;8.00;99.90;;;;;;5043072;28;20226;-83
2023/02/23 06:42:16;;;;;;;32.33;19.00;;;8.00;99.90;;;;;;5027364;28;20214;-82
2023/02/23 06:44:43;;;;;;;33.83;17.83;;;8.10;99.90;;;;;;5026506;28;20248;-83
2023/02/23 06:47:10;;;;;;;31.30;16.70;;;8.00;99.90;;;;;;5026874;28;20557;-82
2023/02/23 06:49:39;;;;;;;27.17;15.90;;;8.00;99.90;;;;;;5026729;28;20194;-82
2023/02/23 06:52:07;;;;;;;26.87;15.30;;;8.00;99.90;;;;;;5035986;28;20206;-82
2023/02/23 06:54:34;;;;;;;27.13;15.07;;;8.00;99.90;;;;;;5032479;28;20238;-82
2023/02/23 06:57:01;;;;;;;25.63;14.30;;;8.00;99.90;;;;;;5024319;28;20202;-82
2023/02/23 06:59:29;;;;;;;26.50;14.50;;;8.00;99.90;;;;;;5023488;28;20193;-83
2023/02/23 07:01:56;;;;;;;22.57;13.60;;;8.00;99.90;;;;;;5024064;28;20593;-83
2023/02/23 07:04:23;;;;;;;20.80;13.20;;;8.00;99.90;;;;;;5043862;28;20230;-84
2023/02/23 07:06:50;;;;;;;23.30;14.27;;;8.00;99.90;;;;;;5045462;28;20204;-84
2023/02/23 07:09:18;;;;;;;30.40;16.20;;;8.10;99.90;;;;;;5045483;28;20194;-84
2023/02/23 07:11:45;;;;;;;26.40;13.87;;;8.10;99.90;;;;;;5036840;28;20211;-84
2023/02/23 07:14:12;;;;;;;26.20;13.27;;;8.00;99.90;;;;;;5025078;28;20246;-84
2023/02/23 07:16:40;;;;;;;20.23;12.03;;;8.00;99.90;;;;;;5027093;28;20214;-82
2023/02/23 07:19:07;;;;;;;24.33;12.20;;;8.10;99.90;;;;;;5027330;28;20289;-83
2023/02/23 07:21:34;;;;;;;19.73;12.40;;;8.10;99.90;;;;;;5025748;28;20199;-84
2023/02/23 07:24:02;;;;;;;25.00;13.23;;;8.00;99.90;;;;;;5026612;28;20635;-84
2023/02/23 07:26:30;;;;;;;22.20;11.77;;;8.10;99.90;;;;;;5031215;28;20242;-83
2023/02/23 07:28:57;;;;;;;21.67;12.43;;;8.10;99.90;;;;;;5031292;28;20228;-83
2023/02/23 07:31:25;;;;;;;22.00;11.67;;;8.20;99.90;;;;;;5031081;28;20210;-84
2023/02/23 07:33:53;;;;;;;23.73;12.57;;;8.10;99.90;;;;;;5042850;28;20259;-83
2023/02/23 07:36:20;;;;;;;27.07;12.63;;;8.20;99.90;;;;;;5050788;28;20198;-84
2023/02/23 07:38:47;;;;;;;24.30;12.47;;;8.20;99.90;;;;;;5050478;28;20744;-83
2023/02/23 07:41:14;;;;;;;26.33;13.23;;;8.20;99.90;;;;;;5047174;28;20363;-83
2023/02/23 07:43:42;;;;;;;22.27;12.63;;;8.20;99.90;;;;;;5046084;28;20208;-83
2023/02/23 07:46:09;;;;;;;26.93;12.03;;;8.20;99.90;;;;;;5047611;28;20317;-83
2023/02/23 07:48:37;;;;;;;26.30;13.80;;;8.20;99.90;;;;;;5036403;28;20218;-82
2023/02/23 07:51:09;;;;;;;28.63;14.10;;;8.20;99.90;;;;;;5027255;28;20203;-81
2023/02/23 07:53:36;;;;;;;25.60;13.77;;;8.20;99.90;;;;;;5028220;28;20218;-86
2023/02/23 07:56:04;;;;;;;26.43;14.30;;;8.20;99.90;;;;;;5028087;28;20209;-82
2023/02/23 07:58:31;;;;;;;28.63;15.50;;;8.20;99.90;;;;;;5027111;28;20213;-81
2023/02/23 08:00:59;;;;;;;30.60;15.30;;;8.20;99.90;;;;;;5026514;28;20220;-81
2023/02/23 08:03:26;;;;;;;30.47;15.63;;;8.20;99.90;;;;;;5025798;28;20312;-81
2023/02/23 08:05:53;;;;;;;31.03;15.23;;;8.30;99.90;;;;;;5025936;28;20829;-81
2023/02/23 08:08:20;;;;;;;32.80;15.97;;;8.20;99.90;;;;;;5025471;28;20305;-80
2023/02/23 08:10:47;;;;;;;29.63;15.80;;;8.20;99.90;;;;;;5025798;28;20280;-81
2023/02/23 08:13:14;;;;;;;38.00;16.27;;;8.20;99.90;;;;;;5024673;28;20210;-81
2023/02/23 08:15:41;;;;;;;26.03;14.43;;;8.20;99.90;;;;;;5025509;28;20199;-81
2023/02/23 08:18:10;;;;;;;28.43;14.60;;;8.30;99.90;;;;;;5025198;28;20203;-80
2023/02/23 08:20:37;;;;;;;27.33;13.40;;;8.20;99.90;;;;;;5025644;28;20275;-80
2023/02/23 08:23:04;;;;;;;26.70;14.03;;;8.20;99.90;;;;;;5026342;28;20677;-82
2023/02/23 08:25:31;;;;;;;25.27;14.57;;;8.20;99.90;;;;;;5040910;28;20245;-83
2023/02/23 08:28:03;;;;;;;29.23;14.50;;;8.20;99.90;;;;;;5046160;28;20210;-84
2023/02/23 08:30:30;;;;;;;28.23;15.63;;;8.20;99.90;;;;;;5025885;28;20241;-80
2023/02/23 08:32:58;;;;;;;27.37;14.90;;;8.30;99.90;;;;;;5038301;28;20205;-84
2023/02/23 08:35:26;;;;;;;27.87;15.07;;;8.30;99.90;;;;;;5047622;28;20209;-84
2023/02/23 08:37:56;;;;;;;29.50;16.57;;;8.30;99.90;;;;;;5034480;28;20325;-83
2023/02/23 08:40:23;;;;;;;30.33;16.77;;;8.40;99.90;;;;;;5048386;28;20210;-85
2023/02/23 08:42:51;;;;;;;27.77;16.00;;;8.40;99.90;;;;;;5050191;28;20208;-84
2023/02/23 08:45:19;;;;;;;31.37;16.33;;;8.40;99.90;;;;;;5047857;28;20233;-84
2023/02/23 08:47:46;;;;;;;29.20;16.20;;;8.40;99.90;;;;;;5063174;28;20211;-84
2023/02/23 08:50:13;;;;;;;31.97;16.13;;;8.40;99.90;;;;;;5044512;28;20209;-84
2023/02/23 08:52:42;;;;;;;30.23;15.87;;;8.50;99.90;;;;;;5050279;28;20269;-84
2023/02/23 08:55:10;;;;;;;35.50;17.47;;;8.50;99.90;;;;;;5048516;28;20202;-84
2023/02/23 08:57:38;;;;;;;34.37;18.80;;;8.50;99.90;;;;;;5049828;28;20202;-84
2023/02/23 09:00:13;;;;;;;43.30;22.27;;;8.50;99.90;;;;;;5039894;28;20217;-84
2023/02/23 09:02:40;;;;;;;45.90;23.57;;;8.60;99.90;;;;;;5049987;28;20767;-85
2023/02/23 09:05:08;;;;;;;50.17;24.17;;;8.60;99.90;;;;;;5037508;28;20229;-84
2023/02/23 09:07:35;;;;;;;49.20;24.20;;;8.50;99.90;;;;;;5030103;28;20202;-84
2023/02/23 09:10:04;;;;;;;50.37;24.90;;;8.50;99.90;;;;;;5027742;28;20387;-83
2023/02/23 09:12:31;;;;;;;54.60;25.73;;;8.50;99.90;;;;;;5033968;28;20220;-84
2023/02/23 09:14:58;;;;;;;48.07;25.13;;;8.60;99.90;;;;;;5028987;28;20327;-84
2023/02/23 09:17:25;;;;;;;65.67;27.93;;;8.60;99.90;;;;;;5024587;28;20206;-84
2023/02/23 09:19:52;;;;;;;63.07;28.57;;;8.60;99.90;;;;;;5028138;28;20293;-80
2023/02/23 09:22:19;;;;;;;61.07;27.37;;;8.70;99.90;;;;;;5043054;28;20201;-82
2023/02/23 09:24:46;;;;;;;65.27;30.20;;;8.70;99.90;;;;;;5033975;28;20664;-80
2023/02/23 09:27:15;;;;;;;65.30;30.30;;;8.70;99.90;;;;;;5031651;28;20288;-81
2023/02/23 09:29:43;;;;;;;63.30;29.23;;;8.70;99.90;;;;;;5039192;28;20206;-80
2023/02/23 09:32:11;;;;;;;60.73;27.90;;;8.70;99.90;;;;;;5039919;28;20243;-81
2023/02/23 09:34:38;;;;;;;54.27;26.37;;;8.70;99.90;;;;;;5031626;28;20206;-80
2023/02/23 09:37:06;;;;;;;59.60;27.47;;;8.70;99.90;;;;;;5027384;28;20213;-80
2023/02/23 09:39:33;;;;;;;57.63;27.13;;;8.80;99.90;;;;;;5027254;28;20233;-83
2023/02/23 09:42:19;;;;;;;58.50;26.23;;;8.80;99.90;;;;;;5029531;28;20285;-81
2023/02/23 09:45:02;;;;;;;59.53;28.40;;;8.90;99.90;;;;;;5041239;28;20209;-81
2023/02/23 09:47:39;;;;;;;55.87;26.23;;;8.90;99.90;;;;;;5043754;28;20190;-83
2023/02/23 09:50:15;;;;;;;51.87;25.60;;;8.90;99.90;;;;;;5029209;28;20320;-81
2023/02/23 09:52:46;;;;;;;59.47;27.20;;;8.90;99.90;;;;;;5025408;28;20285;-83
2023/02/23 09:55:15;;;;;;;55.87;26.30;;;9.00;99.90;;;;;;5025071;28;20302;-82
2023/02/23 09:57:49;;;;;;;52.10;26.67;;;9.00;99.90;;;;;;5037232;28;20233;-81
2023/02/23 10:00:24;;;;;;;60.30;27.80;;;9.00;99.90;;;;;;5045572;28;20217;-82
2023/02/23 10:03:21;;;;;;;48.23;24.17;;;8.90;99.90;;;;;;5027351;28;20668;-82
2023/02/23 10:05:53;;;;;;;41.73;22.10;;;9.00;99.90;;;;;;5015617;28;20226;-82
2023/02/23 10:08:33;;;;;;;51.00;23.63;;;9.00;99.90;;;;;;5024938;28;20198;-85
2023/02/23 10:11:08;;;;;;;41.80;21.77;;;9.00;99.90;;;;;;5026349;28;20938;-83
2023/02/23 10:13:46;;;;;;;43.33;22.50;;;9.00;99.90;;;;;;5027983;28;20369;-83
2023/02/23 10:16:21;;;;;;;42.47;22.03;;;9.00;99.90;;;;;;5044410;28;20650;-82
2023/02/23 10:18:56;;;;;;;40.70;21.27;;;9.00;99.90;;;;;;5046194;28;20691;-83
2023/02/23 10:21:34;;;;;;;43.37;22.37;;;8.90;99.90;;;;;;5044621;28;20491;-83
2023/02/23 10:24:06;;;;;;;40.63;20.80;;;9.00;99.90;;;;;;5040461;28;20696;-81
2023/02/23 10:26:42;;;;;;;41.13;21.37;;;9.10;99.90;;;;;;5023415;28;20565;-80
2023/02/23 10:29:25;;;;;;;38.40;20.13;;;9.10;99.90;;;;;;5025501;28;20210;-82
2023/02/23 10:31:57;;;;;;;35.13;19.03;;;9.10;99.90;;;;;;5026221;28;20313;-83
2023/02/23 10:34:26;;;;;;;40.07;21.43;;;9.20;99.90;;;;;;5034684;28;20220;-82
2023/02/23 10:36:59;;;;;;;36.17;21.37;;;9.30;99.90;;;;;;5045681;28;20198;-82
2023/02/23 10:39:26;;;;;;;41.40;22.40;;;9.30;99.90;;;;;;5045181;28;20214;-83
2023/02/23 10:41:54;;;;;;;46.13;24.57;;;9.40;99.90;;;;;;5044850;28;20221;-82
2023/02/23 10:44:24;;;;;;;42.93;23.73;;;9.40;99.90;;;;;;5045914;28;20202;-83
2023/02/23 10:46:54;;;;;;;45.40;24.73;;;9.40;99.90;;;;;;5035823;28;20232;-82
2023/02/23 10:49:25;;;;;;;48.80;25.03;;;9.40;99.90;;;;;;5036762;28;20210;-80
2023/02/23 10:51:56;;;;;;;45.97;23.40;;;9.40;99.90;;;;;;5042463;28;20213;-82
2023/02/23 10:54:41;;;;;;;39.70;21.70;;;9.50;99.90;;;;;;5042265;28;20246;-81
2023/02/23 10:57:12;;;;;;;35.93;17.80;;;9.40;99.90;;;;;;5030170;28;20222;-81
2023/02/23 10:59:41;;;;;;;30.83;17.20;;;9.40;99.90;;;;;;5025151;28;20211;-80
2023/02/23 11:02:24;;;;;;;26.97;16.00;;;9.40;99.90;;;;;;5026690;28;20210;-82
2023/02/23 11:04:53;;;;;;;27.50;16.03;;;9.50;99.90;;;;;;5027011;28;20207;-80
2023/02/23 11:07:24;;;;;;;29.93;16.50;;;9.40;99.90;;;;;;5025804;28;20305;-80
2023/02/23 11:09:51;;;;;;;29.40;16.93;;;9.40;99.90;;;;;;5025302;28;20698;-80
2023/02/23 11:12:22;;;;;;;31.43;17.43;;;9.40;99.90;;;;;;5025932;28;20211;-81
2023/02/23 11:14:51;;;;;;;33.47;19.57;;;9.40;99.90;;;;;;5026182;28;20917;-82
2023/02/23 11:17:29;;;;;;;40.80;22.30;;;9.40;99.90;;;;;;5026017;28;20217;-81
2023/02/23 11:20:04;;;;;;;43.53;23.20;;;9.40;99.90;;;;;;5032910;28;20202;-80
2023/02/23 11:22:35;;;;;;;48.10;24.37;;;9.40;99.90;;;;;;5045455;28;20930;-80
2023/02/23 11:25:12;;;;;;;42.73;23.37;;;9.30;99.90;;;;;;5045208;28;20669;-80
2023/02/23 11:27:39;;;;;;;49.40;24.00;;;9.30;99.90;;;;;;5030060;28;20287;-80
2023/02/23 11:30:13;;;;;;;46.23;21.93;;;9.30;99.90;;;;;;5024312;28;20210;-80
2023/02/23 11:32:42;;;;;;;46.53;23.80;;;9.20;99.90;;;;;;5034585;28;20309;-81
2023/02/23 11:35:26;;;;;;;41.60;23.33;;;9.30;99.90;;;;;;5044683;28;20283;-81
2023/02/23 11:37:53;;;;;;;47.50;24.40;;;9.30;99.90;;;;;;5029432;28;20229;-82
2023/02/23 11:40:23;;;;;;;44.17;23.17;;;9.40;99.90;;;;;;5024892;28;20214;-81
2023/02/23 11:42:56;;;;;;;42.33;21.87;;;9.40;99.90;;;;;;5059836;23;20303;-81
2023/02/23 11:45:26;;;;;;;40.27;20.03;;;9.50;99.90;;;;;;5065344;28;20209;-81
2023/02/23 11:47:57;;;;;;;40.43;22.40;;;9.50;99.90;;;;;;5065353;28;20199;-81
2023/02/23 11:50:28;;;;;;;39.17;20.93;;;9.40;99.90;;;;;;5069151;28;20228;-86
2023/02/23 11:53:04;;;;;;;40.00;20.70;;;9.50;99.90;;;;;;5065149;28;20762;-84
2023/02/23 11:55:33;;;;;;;39.60;20.17;;;9.60;99.90;;;;;;5045835;28;20810;-82
2023/02/23 11:58:18;;;;;;;40.63;19.07;;;9.60;99.90;;;;;;5044876;28;20214;-80
2023/02/23 12:00:55;;;;;;;33.73;18.93;;;9.60;99.90;;;;;;5045434;28;20213;-81
2023/02/23 12:03:25;;;;;;;36.67;17.77;;;9.70;99.90;;;;;;5045152;28;20684;-80
2023/02/23 12:05:56;;;;;;;41.57;19.53;;;9.70;99.90;;;;;;5044714;28;20540;-80
2023/02/23 12:08:34;;;;;;;37.00;19.37;;;9.70;99.90;;;;;;5045790;28;20691;-80
2023/02/23 12:11:06;;;;;;;41.57;20.47;;;9.70;99.90;;;;;;5045306;28;20212;-80
2023/02/23 12:13:36;;;;;;;35.77;18.60;;;9.80;99.90;;;;;;5045313;28;20216;-80
2023/02/23 12:16:12;;;;;;;35.40;18.30;;;9.80;99.90;;;;;;5045060;28;20190;-79
2023/02/23 12:18:46;;;;;;;40.70;19.50;;;9.80;99.90;;;;;;5045632;28;20197;-80
2023/02/23 12:21:27;;;;;;;39.23;20.13;;;9.80;99.90;;;;;;5043827;28;20200;-79
2023/02/23 12:24:04;;;;;;;35.73;16.83;;;9.90;99.90;;;;;;5044992;28;20206;-78
2023/02/23 12:26:37;;;;;;;39.60;18.07;;;9.90;99.90;;;;;;5044603;28;20213;-79
2023/02/23 12:29:12;;;;;;;39.40;18.63;;;9.90;99.90;;;;;;5044914;28;20228;-80
2023/02/23 12:31:47;;;;;;;34.93;16.27;;;9.90;99.90;;;;;;5044920;28;20201;-79
2023/02/23 12:34:21;;;;;;;31.93;16.80;;;9.90;99.90;;;;;;5043749;28;20288;-77
2023/02/23 12:36:54;;;;;;;28.30;14.50;;;9.90;99.90;;;;;;5046138;28;20196;-80
2023/02/23 12:39:26;;;;;;;34.13;16.77;;;9.80;99.90;;;;;;5045534;28;20227;-79
2023/02/23 12:42:04;;;;;;;31.53;14.53;;;9.80;99.90;;;;;;5044641;28;20260;-79
2023/02/23 12:44:42;;;;;;;36.30;17.00;;;9.80;99.90;;;;;;5046692;28;20206;-81
2023/02/23 12:47:23;;;;;;;27.87;14.63;;;9.70;99.90;;;;;;5047705;28;20218;-82
2023/02/23 12:49:56;;;;;;;28.13;13.53;;;9.70;99.90;;;;;;5046434;28;20205;-82
2023/02/23 12:52:28;;;;;;;25.60;12.20;;;9.70;99.90;;;;;;5049035;28;20267;-81
2023/02/23 12:54:56;;;;;;;26.93;12.77;;;9.80;99.90;;;;;;5045318;28;20552;-79
2023/02/23 12:57:31;;;;;;;28.13;11.07;;;9.80;99.90;;;;;;5045098;28;20198;-79
2023/02/23 13:00:22;;;;;;;23.10;12.47;;;9.80;99.90;;;;;;5044316;28;20212;-78
2023/02/23 13:03:07;;;;;;;26.30;10.83;;;9.80;99.90;;;;;;5044918;28;20598;-79
2023/02/23 13:05:40;;;;;;;10.67;5.07;;;9.80;99.90;;;;;;5044832;28;20200;-80
2023/02/23 13:08:20;;;;;;;8.57;3.53;;;9.70;99.90;;;;;;5044916;28;20220;-81
2023/02/23 13:10:54;;;;;;;8.37;3.27;;;9.60;99.90;;;;;;5044958;28;20202;-79
2023/02/23 13:13:31;;;;;;;9.37;2.77;;;9.60;99.90;;;;;;5051746;28;20574;-80
2023/02/23 13:16:03;;;;;;;7.87;2.20;;;9.50;99.90;;;;;;5064809;28;20300;-80
2023/02/23 13:18:35;;;;;;;6.53;2.30;;;9.50;99.90;;;;;;5059362;28;20204;-82
2023/02/23 13:21:10;;;;;;;9.13;2.47;;;9.40;99.90;;;;;;5065380;28;20216;-82
2023/02/23 13:23:41;;;;;;;10.27;2.43;;;9.30;99.90;;;;;;5065754;28;20275;-82
2023/02/23 13:26:23;;;;;;;9.03;2.37;;;9.30;99.90;;;;;;5066979;28;20607;-81
2023/02/23 13:28:56;;;;;;;9.00;3.07;;;9.30;99.90;;;;;;5066609;28;20675;-80
2023/02/23 13:31:25;;;;;;;12.00;3.67;;;9.20;99.90;;;;;;5065921;28;20205;-81
2023/02/23 13:33:56;;;;;;;15.17;3.70;;;9.20;99.90;;;;;;5049737;28;20209;-81
2023/02/23 13:36:24;;;;;;;10.13;3.57;;;9.20;99.90;;;;;;5046276;28;20290;-81
2023/02/23 13:39:16;;;;;;;10.97;3.33;;;9.20;99.90;;;;;;5046855;28;20226;-81
2023/02/23 13:41:50;;;;;;;13.37;2.97;;;9.30;99.90;;;;;;5047202;28;20649;-84
2023/02/23 13:44:23;;;;;;;17.73;3.60;;;9.20;99.90;;;;;;5067579;28;20196;-80
2023/02/23 13:46:56;;;;;;;18.77;3.90;;;9.20;99.90;;;;;;5068173;28;20208;-83
2023/02/23 13:49:37;;;;;;;15.17;3.30;;;9.20;99.90;;;;;;5066818;28;20504;-82
2023/02/23 13:52:16;;;;;;;17.17;3.53;;;9.10;99.90;;;;;;5057558;28;20488;-82
2023/02/23 13:54:55;;;;;;;13.87;3.13;;;9.00;99.90;;;;;;5045677;28;20296;-83
2023/02/23 13:57:22;;;;;;;15.60;4.20;;;8.90;99.90;;;;;;5043781;28;20283;-83
2023/02/23 13:59:50;;;;;;;18.77;4.27;;;8.80;99.90;;;;;;5061847;28;20213;-81
2023/02/23 14:02:31;;;;;;;18.57;4.20;;;8.70;99.90;;;;;;5064678;28;20243;-80
2023/02/23 14:05:05;;;;;;;21.97;4.70;;;8.70;99.90;;;;;;5062996;28;20962;-82
2023/02/23 14:07:38;;;;;;;18.40;4.20;;;8.50;99.90;;;;;;5063703;28;20320;-80
2023/02/23 14:10:07;;;;;;;24.53;6.73;;;8.50;99.90;;;;;;5044657;28;20192;-81
2023/02/23 14:12:37;;;;;;;27.17;5.67;;;8.50;99.90;;;;;;5044958;28;20512;-80
2023/02/23 14:15:41;;;;;;;24.50;5.00;;;8.50;99.90;;;;;;5060548;28;20194;-83
2023/02/23 14:18:30;;;;;;;26.47;4.50;;;8.50;99.90;;;;;;4973924;28;20635;-81